createdAt,value
2023-05-01T00:00:48.202Z,100593.19
2023-05-01T00:03:18.263Z,100596.63
2023-05-01T00:05:48.527Z,100593.88
2023-05-01T00:08:20.716Z,100584.38
2023-05-01T00:10:50.318Z,100586.53
2023-05-01T00:13:22.169Z,100579.47
2023-05-01T00:15:51.826Z,100576.66
2023-05-01T00:18:21.749Z,100586.34
2023-05-01T00:20:51.629Z,100582.09
2023-05-01T00:23:23.910Z,100576.22
2023-05-01T00:25:53.426Z,100576.31
2023-05-01T00:28:22.958Z,100572.19
2023-05-01T00:30:52.486Z,100571.63
2023-05-01T00:33:22.103Z,100563.75
2023-05-01T00:35:51.675Z,100565.91
2023-05-01T00:38:24.362Z,100565.63
2023-05-01T00:40:53.871Z,100564.31
2023-05-01T00:43:23.703Z,100558.06
2023-05-01T00:45:53.605Z,100566.56
2023-05-01T00:48:23.472Z,100556.81
2023-05-01T00:50:53.141Z,100563.16
2023-05-01T00:53:26.874Z,100557.16
2023-05-01T00:55:57.596Z,100549.78
2023-05-01T00:58:27.196Z,100548.53
2023-05-01T01:00:57.467Z,100543.66
2023-05-01T01:03:28.048Z,100552.16
2023-05-01T01:06:01.992Z,100544.91
2023-05-01T01:08:41.474Z,100545.09
2023-05-01T01:11:18.078Z,100543.53
2023-05-01T01:13:55.628Z,100543.09
2023-05-01T01:16:34.742Z,100541.03
2023-05-01T01:19:19.391Z,100542.47
2023-05-01T01:21:52.794Z,100552.47
2023-05-01T01:24:39.323Z,100539.97
2023-05-01T01:27:38.328Z,100538.13
2023-05-01T01:30:53.207Z,100535.84
2023-05-01T01:33:48.526Z,100540.50
2023-05-01T01:36:25.335Z,100530.38
2023-05-01T01:39:01.083Z,100533.94
2023-05-01T01:41:36.304Z,100530.09
2023-05-01T01:44:12.218Z,100529.63
2023-05-01T01:46:45.597Z,100519.66
2023-05-01T01:49:22.242Z,100526.47
2023-05-01T01:51:56.196Z,100530.75
2023-05-01T01:54:30.838Z,100524.63
2023-05-01T01:57:04.300Z,100523.34
2023-05-01T01:59:36.467Z,100525.59
2023-05-01T02:02:07.726Z,100530.81
2023-05-01T02:04:39.155Z,100530.34
2023-05-01T02:07:14.462Z,100527.47
2023-05-01T02:09:44.907Z,100524.31
2023-05-01T02:12:17.126Z,100527.47
2023-05-01T02:14:47.937Z,100519.75
2023-05-01T02:17:18.614Z,100521.59
2023-05-01T02:19:48.889Z,100514.50
2023-05-01T02:22:23.360Z,100516.97
2023-05-01T02:24:52.903Z,100505.28
2023-05-01T02:27:23.938Z,100510.22
2023-05-01T02:29:55.197Z,100507.09
2023-05-01T02:32:25.013Z,100504.00
2023-05-01T02:34:54.794Z,100505.56
2023-05-01T02:37:27.071Z,100494.19
2023-05-01T02:39:57.143Z,100503.81
2023-05-01T02:42:28.714Z,100503.72
2023-05-01T02:45:03.170Z,100503.81
2023-05-01T02:47:35.342Z,100508.91
2023-05-01T02:50:07.056Z,100500.00
2023-05-01T02:52:40.162Z,100498.88
2023-05-01T02:55:11.266Z,100505.28
2023-05-01T02:57:41.525Z,100497.50
2023-05-01T03:00:14.183Z,100499.03
2023-05-01T03:02:44.031Z,100497.88
2023-05-01T03:05:13.911Z,100500.38
2023-05-01T03:07:46.398Z,100491.03
2023-05-01T03:10:16.577Z,100502.97
2023-05-01T03:12:46.127Z,100511.59
2023-05-01T03:15:15.749Z,100495.13
2023-05-01T03:17:45.342Z,100495.88
2023-05-01T03:20:16.299Z,100495.19
2023-05-01T03:22:48.380Z,100490.69
2023-05-01T03:25:18.204Z,100491.25
2023-05-01T03:27:47.866Z,100487.69
2023-05-01T03:30:17.851Z,100483.91
2023-05-01T03:32:47.393Z,100489.66
2023-05-01T03:35:17.060Z,100489.81
2023-05-01T03:37:49.390Z,100479.19
2023-05-01T03:40:19.580Z,100489.78
2023-05-01T03:42:49.124Z,100484.28
2023-05-01T03:45:18.916Z,100493.53
2023-05-01T03:47:48.478Z,100492.53
2023-05-01T03:50:18.062Z,100487.88
2023-05-01T03:52:50.198Z,100492.63
2023-05-01T03:55:19.876Z,100491.69
2023-05-01T03:57:50.080Z,100484.56
2023-05-01T04:00:19.791Z,100493.06
2023-05-01T04:02:49.689Z,100490.06
2023-05-01T04:05:19.487Z,100483.97
2023-05-01T04:07:51.616Z,100484.50
2023-05-01T04:10:21.264Z,100481.97
2023-05-01T04:12:50.777Z,100485.41
2023-05-01T04:15:20.651Z,100484.97
2023-05-01T04:17:50.399Z,100486.97
2023-05-01T04:20:20.442Z,100490.78
2023-05-01T04:22:52.791Z,100483.06
2023-05-01T04:25:22.314Z,100476.66
2023-05-01T04:27:51.867Z,100490.03
2023-05-01T04:30:21.634Z,100494.47
2023-05-01T04:32:51.249Z,100497.00
2023-05-01T04:35:20.940Z,100493.78
2023-05-01T04:37:53.067Z,100507.59
2023-05-01T04:40:22.687Z,100504.59
2023-05-01T04:42:52.214Z,100498.97
2023-05-01T04:45:21.744Z,100498.22
2023-05-01T04:47:51.314Z,100495.59
2023-05-01T04:50:20.886Z,100504.03
2023-05-01T04:52:53.466Z,100504.84
2023-05-01T04:55:23.046Z,100505.09
2023-05-01T04:57:52.578Z,100506.22
2023-05-01T05:00:22.301Z,100499.81
2023-05-01T05:02:51.963Z,100497.34
2023-05-01T05:05:21.589Z,100493.53
2023-05-01T05:07:53.707Z,100490.28
2023-05-01T05:10:23.592Z,100502.53
2023-05-01T05:12:53.146Z,100507.38
2023-05-01T05:15:22.805Z,100508.00
2023-05-01T05:17:53.914Z,100506.06
2023-05-01T05:20:24.647Z,100492.78
2023-05-01T05:22:56.760Z,100506.75
2023-05-01T05:25:27.219Z,100501.16
2023-05-01T05:27:56.754Z,100504.03
2023-05-01T05:30:26.262Z,100501.25
2023-05-01T05:32:55.885Z,100492.69
2023-05-01T05:35:25.510Z,100486.09
2023-05-01T05:37:57.619Z,100492.75
2023-05-01T05:40:27.227Z,100486.38
2023-05-01T05:42:56.766Z,100489.34
2023-05-01T05:45:26.273Z,100497.28
2023-05-01T05:47:55.930Z,100508.72
2023-05-01T05:50:25.478Z,100488.66
2023-05-01T05:52:57.553Z,100487.25
2023-05-01T05:55:28.250Z,100497.03
2023-05-01T05:57:57.826Z,100489.28
2023-05-01T06:00:27.493Z,100487.75
2023-05-01T06:02:57.221Z,100491.84
2023-05-01T06:05:27.008Z,100498.72
2023-05-01T06:07:59.857Z,100496.69
2023-05-01T06:10:29.415Z,100506.72
2023-05-01T06:13:03.168Z,100495.34
2023-05-01T06:15:43.965Z,100501.59
2023-05-01T06:18:14.924Z,100495.13
2023-05-01T06:20:44.574Z,100491.94
2023-05-01T06:23:16.704Z,100494.47
2023-05-01T06:25:46.418Z,100497.31
2023-05-01T06:28:16.177Z,100492.09
2023-05-01T06:30:45.785Z,100497.78
2023-05-01T06:33:15.387Z,100486.84
2023-05-01T06:35:44.948Z,100491.06
2023-05-01T06:38:17.055Z,100486.81
2023-05-01T06:40:47.668Z,100477.06
2023-05-01T06:43:17.322Z,100483.50
2023-05-01T06:45:46.878Z,100480.75
2023-05-01T06:48:16.414Z,100489.22
2023-05-01T06:50:45.943Z,100481.06
2023-05-01T06:53:18.081Z,100474.56
2023-05-01T06:55:47.694Z,100483.16
2023-05-01T07:00:52.095Z,100481.34
2023-05-01T07:03:21.921Z,100479.19
2023-05-01T07:05:51.579Z,100468.00
2023-05-01T07:08:24.454Z,100468.16
2023-05-01T07:10:54.469Z,100460.94
2023-05-01T07:13:24.075Z,100465.13
2023-05-01T07:15:54.740Z,100453.50
2023-05-01T07:18:24.387Z,100450.81
2023-05-01T07:20:53.984Z,100457.78
2023-05-01T07:23:26.259Z,100449.66
2023-05-01T07:25:56.181Z,100449.03
2023-05-01T07:28:25.776Z,100465.63
2023-05-01T07:30:55.473Z,100446.69
2023-05-01T07:33:26.699Z,100450.44
2023-05-01T07:35:56.656Z,100437.59
2023-05-01T07:38:29.155Z,100444.44
2023-05-01T07:40:58.887Z,100449.19
2023-05-01T07:43:28.454Z,100440.31
2023-05-01T07:46:00.556Z,100447.91
2023-05-01T07:48:32.004Z,100449.13
2023-05-01T07:51:05.287Z,100440.44
2023-05-01T07:53:37.522Z,100428.56
2023-05-01T07:56:10.404Z,100435.47
2023-05-01T07:58:41.693Z,100429.16
2023-05-01T08:01:11.966Z,100443.28
2023-05-01T08:03:42.298Z,100432.16
2023-05-01T08:06:12.029Z,100432.59
2023-05-01T08:08:44.186Z,100425.31
2023-05-01T08:11:14.926Z,100425.22
2023-05-01T08:13:44.523Z,100431.13
2023-05-01T08:16:14.337Z,100421.53
2023-05-01T08:18:43.976Z,100420.56
2023-05-01T08:21:13.652Z,100425.91
2023-05-01T08:23:45.750Z,100419.84
2023-05-01T08:26:15.280Z,100421.63
2023-05-01T08:28:45.126Z,100413.81
2023-05-01T08:31:14.708Z,100404.28
2023-05-01T08:33:44.764Z,100407.88
2023-05-01T08:36:14.604Z,100408.63
2023-05-01T08:38:46.792Z,100418.28
2023-05-01T08:41:19.485Z,100408.56
2023-05-01T08:43:49.233Z,100409.50
2023-05-01T08:46:26.184Z,100403.81
2023-05-01T08:49:00.746Z,100409.53
2023-05-01T08:51:33.884Z,100401.97
2023-05-01T08:54:08.487Z,100396.00
2023-05-01T08:56:39.090Z,100398.25
2023-05-01T08:59:12.391Z,100394.91
2023-05-01T09:01:43.882Z,100390.50
2023-05-01T09:04:14.772Z,100393.97
2023-05-01T09:06:45.285Z,100384.53
2023-05-01T09:09:17.456Z,100378.03
2023-05-01T09:11:47.714Z,100381.19
2023-05-01T09:14:17.473Z,100383.16
2023-05-01T09:16:47.261Z,100376.56
2023-05-01T09:19:17.035Z,100373.69
2023-05-01T09:21:46.642Z,100374.09
2023-05-01T09:24:18.808Z,100364.25
2023-05-01T09:26:48.972Z,100376.63
2023-05-01T09:29:40.448Z,100365.66
2023-05-01T09:32:17.940Z,100364.88
2023-05-01T09:34:47.843Z,100367.84
2023-05-01T09:37:32.306Z,100365.94
2023-05-01T09:40:12.988Z,100364.75
2023-05-01T09:42:43.811Z,100367.84
2023-05-01T09:45:16.878Z,100350.09
2023-05-01T09:47:47.029Z,100355.88
2023-05-01T09:50:33.285Z,100356.75
2023-05-01T09:53:04.981Z,100350.97
2023-05-01T09:55:38.853Z,100342.97
2023-05-01T09:58:08.429Z,100342.59
2023-05-01T10:00:51.593Z,100339.66
2023-05-01T10:03:21.450Z,100346.59
2023-05-01T10:05:51.095Z,100343.09
2023-05-01T10:08:20.841Z,100338.50
2023-05-01T10:11:02.914Z,100333.09
2023-05-01T10:13:32.565Z,100322.22
2023-05-01T10:16:07.528Z,100323.53
2023-05-01T10:18:38.127Z,100316.16
2023-05-01T10:21:10.150Z,100311.28
2023-05-01T10:23:39.735Z,100312.81
2023-05-01T10:26:16.834Z,100308.63
2023-05-01T10:28:47.560Z,100309.88
2023-05-01T10:31:17.915Z,100291.31
2023-05-01T10:33:49.147Z,100298.25
2023-05-01T10:36:23.622Z,100306.41
2023-05-01T10:38:53.260Z,100304.91
2023-05-01T10:41:52.787Z,100292.28
2023-05-01T10:44:29.160Z,100278.88
2023-05-01T10:46:58.745Z,100292.78
2023-05-01T10:49:28.316Z,100281.28
2023-05-01T10:52:03.820Z,100282.41
2023-05-01T10:54:34.119Z,100274.09
2023-05-01T10:57:04.933Z,100258.06
2023-05-01T11:00:05.100Z,100269.78
2023-05-01T11:02:37.243Z,100261.28
2023-05-01T11:05:07.620Z,100256.84
2023-05-01T11:07:37.463Z,100262.66
2023-05-01T11:10:28.849Z,100245.41
2023-05-01T11:12:58.519Z,100247.09
2023-05-01T11:15:33.933Z,100246.75
2023-05-01T11:18:07.384Z,100243.69
2023-05-01T11:20:52.030Z,100240.94
2023-05-01T11:23:26.692Z,100239.28
2023-05-01T11:26:09.845Z,100234.94
2023-05-01T11:28:41.283Z,100224.28
2023-05-01T11:31:11.717Z,100226.66
2023-05-01T11:33:43.909Z,100223.50
2023-05-01T11:36:14.348Z,100213.94
2023-05-01T11:38:53.081Z,100203.13
2023-05-01T11:41:24.032Z,100197.63
2023-05-01T11:43:54.422Z,100202.63
2023-05-01T11:46:28.024Z,100191.72
2023-05-01T11:49:01.600Z,100183.97
2023-05-01T11:51:32.127Z,100180.13
2023-05-01T11:54:02.576Z,100181.66
2023-05-01T11:56:33.075Z,100164.47
2023-05-01T11:59:12.578Z,100179.03
2023-05-01T12:01:44.595Z,100177.84
2023-05-01T12:04:29.658Z,100162.53
2023-05-01T12:07:01.494Z,100155.03
2023-05-01T12:09:32.070Z,100161.63
2023-05-01T12:12:03.578Z,100163.66
2023-05-01T12:14:33.302Z,100156.59
2023-05-01T12:17:04.231Z,100149.25
2023-05-01T12:19:37.073Z,100154.25
2023-05-01T12:22:10.233Z,100144.94
2023-05-01T12:24:40.241Z,100148.03
2023-05-01T12:27:10.730Z,100144.59
2023-05-01T12:29:44.921Z,100141.84
2023-05-01T12:32:14.526Z,100141.50
2023-05-01T12:34:47.035Z,100132.50
2023-05-01T12:37:16.772Z,100124.50
2023-05-01T12:39:47.338Z,100118.09
2023-05-01T12:42:18.214Z,100118.16
2023-05-01T12:44:47.790Z,100104.94
2023-05-01T12:47:17.694Z,100108.03
2023-05-01T12:49:49.914Z,100111.25
2023-05-01T12:52:20.025Z,100116.09
2023-05-01T12:54:51.849Z,100101.38
2023-05-01T12:57:21.868Z,100103.75
2023-05-01T13:00:01.240Z,100096.97
2023-05-01T13:02:35.402Z,100084.69
2023-05-01T13:05:14.912Z,100080.69
2023-05-01T13:07:52.281Z,100084.53
2023-05-01T13:10:34.095Z,100091.09
2023-05-01T13:13:04.224Z,100073.28
2023-05-01T13:15:33.806Z,100070.63
2023-05-01T13:20:46.124Z,100048.88
2023-05-01T13:23:15.817Z,100055.50
2023-05-01T13:25:46.501Z,100058.78
2023-05-01T13:28:21.626Z,100049.50
2023-05-01T13:30:51.189Z,100050.41
2023-05-01T13:33:20.761Z,100050.63
2023-05-01T13:35:53.007Z,100044.22
2023-05-01T13:38:24.807Z,100031.31
2023-05-01T13:40:54.405Z,100028.94
2023-05-01T13:43:24.669Z,100028.88
2023-05-01T13:45:54.446Z,100034.09
2023-05-01T13:48:24.278Z,100025.84
2023-05-01T13:50:56.369Z,100018.66
2023-05-01T13:53:25.893Z,100019.00
2023-05-01T13:55:55.585Z,100013.94
2023-05-01T13:58:27.927Z,100007.56
2023-05-01T14:00:57.571Z,100004.69
2023-05-01T14:03:27.430Z,99998.13
2023-05-01T14:05:59.747Z,100005.84
2023-05-01T14:08:31.537Z,100003.22
2023-05-01T14:11:01.535Z,99990.75
2023-05-01T14:13:31.055Z,99982.25
2023-05-01T14:16:00.741Z,99982.16
2023-05-01T14:18:30.569Z,99971.91
2023-05-01T14:21:02.730Z,99970.28
2023-05-01T14:23:35.140Z,99979.13
2023-05-01T14:26:05.138Z,99971.91
2023-05-01T14:28:34.696Z,99964.84
2023-05-01T14:31:04.247Z,99965.75
2023-05-01T14:33:33.799Z,99955.09
2023-05-01T14:36:06.096Z,99946.06
2023-05-01T14:38:39.365Z,99945.44
2023-05-01T14:41:11.264Z,99940.47
2023-05-01T14:43:44.619Z,99933.34
2023-05-01T14:46:16.192Z,99939.50
2023-05-01T14:48:45.787Z,99935.50
2023-05-01T14:51:22.402Z,99930.97
2023-05-01T14:53:52.054Z,99926.00
2023-05-01T14:56:21.838Z,99925.53
2023-05-01T14:58:52.467Z,99922.03
2023-05-01T15:01:22.173Z,99931.22
2023-05-01T15:03:52.016Z,99919.41
2023-05-01T15:06:24.531Z,99926.16
2023-05-01T15:08:54.138Z,99917.84
2023-05-01T15:11:23.668Z,99917.16
2023-05-01T15:13:53.231Z,99914.31
2023-05-01T15:16:22.770Z,99917.91
2023-05-01T15:18:52.317Z,99916.81
2023-05-01T15:21:24.571Z,99915.16
2023-05-01T15:23:54.161Z,99908.66
2023-05-01T15:26:24.617Z,99901.47
2023-05-01T15:28:54.371Z,99904.28
2023-05-01T15:31:24.023Z,99897.72
2023-05-01T15:33:53.582Z,99896.81
2023-05-01T15:36:25.759Z,99898.34
2023-05-01T15:38:55.555Z,99898.16
2023-05-01T15:41:25.121Z,99897.69
2023-05-01T15:43:54.661Z,99896.47
2023-05-01T15:46:26.931Z,99892.72
2023-05-01T15:48:56.537Z,99884.75
2023-05-01T15:51:28.699Z,99886.94
2023-05-01T15:53:59.096Z,99891.63
2023-05-01T15:56:28.750Z,99877.00
2023-05-01T15:58:58.263Z,99877.00
2023-05-01T16:01:27.883Z,99874.06
2023-05-01T16:03:57.834Z,99879.69
2023-05-01T16:06:31.349Z,99877.53
2023-05-01T16:09:01.236Z,99866.28
2023-05-01T16:11:30.828Z,99876.13
2023-05-01T16:14:00.559Z,99873.22
2023-05-01T16:16:31.757Z,99870.38
2023-05-01T16:19:02.483Z,99863.28
2023-05-01T16:21:34.679Z,99855.94
2023-05-01T16:24:05.316Z,99865.22
2023-05-01T16:26:36.065Z,99863.94
2023-05-01T16:29:08.613Z,99856.59
2023-05-01T16:31:42.009Z,99854.16
2023-05-01T16:34:14.322Z,99860.16
2023-05-01T16:36:47.508Z,99855.66
2023-05-01T16:39:22.412Z,99855.59
2023-05-01T16:41:53.377Z,99850.59
2023-05-01T16:44:24.903Z,99847.38
2023-05-01T16:46:56.451Z,99850.22
2023-05-01T16:49:27.761Z,99848.81
2023-05-01T16:52:03.845Z,99854.19
2023-05-01T16:54:36.303Z,99848.75
2023-05-01T16:57:06.283Z,99852.47
2023-05-01T16:59:37.139Z,99849.84
2023-05-01T17:02:07.006Z,99857.25
2023-05-01T17:04:36.669Z,99843.25
2023-05-01T17:07:12.852Z,99847.13
2023-05-01T17:09:42.376Z,99843.53
2023-05-01T17:12:11.976Z,99843.00
2023-05-01T17:14:41.564Z,99849.38
2023-05-01T17:17:11.138Z,99848.66
2023-05-01T17:19:41.433Z,99850.72
2023-05-01T17:22:14.595Z,99846.50
2023-05-01T17:24:44.125Z,99838.97
2023-05-01T17:27:13.862Z,99840.22
2023-05-01T17:29:44.108Z,99835.38
2023-05-01T17:32:18.175Z,99838.44
2023-05-01T17:34:59.290Z,99831.84
2023-05-01T17:37:31.837Z,99832.25
2023-05-01T17:40:02.081Z,99838.03
2023-05-01T17:42:31.972Z,99828.78
2023-05-01T17:45:01.507Z,99823.72
2023-05-01T17:47:31.098Z,99831.34
2023-05-01T17:50:01.040Z,99827.19
2023-05-01T17:52:33.394Z,99828.50
2023-05-01T17:55:02.950Z,99827.91
2023-05-01T17:57:32.560Z,99824.56
2023-05-01T18:00:02.657Z,99821.22
2023-05-01T18:02:32.722Z,99828.69
2023-05-01T18:05:02.279Z,99830.69
2023-05-01T18:07:34.873Z,99828.91
2023-05-01T18:10:04.491Z,99830.97
2023-05-01T18:12:34.048Z,99829.88
2023-05-01T18:15:03.561Z,99820.69
2023-05-01T18:17:33.218Z,99823.84
2023-05-01T18:20:02.942Z,99831.19
2023-05-01T18:22:35.057Z,99826.94
2023-05-01T18:25:04.589Z,99828.84
2023-05-01T18:27:34.127Z,99826.28
2023-05-01T18:30:03.717Z,99828.97
2023-05-01T18:32:46.167Z,99833.44
2023-05-01T18:35:17.886Z,99838.91
2023-05-01T18:37:51.016Z,99835.38
2023-05-01T18:40:20.546Z,99838.66
2023-05-01T18:42:50.066Z,99844.59
2023-05-01T18:45:19.794Z,99833.72
2023-05-01T18:47:49.429Z,99843.47
2023-05-01T18:50:22.841Z,99837.25
2023-05-01T18:52:55.000Z,99840.88
2023-05-01T18:55:25.282Z,99841.84
2023-05-01T18:57:55.457Z,99839.84
2023-05-01T19:00:26.162Z,99839.50
2023-05-01T19:02:55.965Z,99842.72
2023-05-01T19:05:25.697Z,99846.16
2023-05-01T19:08:01.951Z,99838.13
2023-05-01T19:10:31.679Z,99842.72
2023-05-01T19:13:01.399Z,99836.91
2023-05-01T19:15:30.934Z,99846.00
2023-05-01T19:18:00.535Z,99847.72
2023-05-01T19:20:30.134Z,99843.34
2023-05-01T19:23:02.284Z,99847.72
2023-05-01T19:25:33.740Z,99839.53
2023-05-01T19:28:03.904Z,99842.47
2023-05-01T19:30:33.727Z,99844.34
2023-05-01T19:33:04.181Z,99838.16
2023-05-01T19:35:34.334Z,99834.88
2023-05-01T19:38:06.459Z,99844.66
2023-05-01T19:40:36.344Z,99846.50
2023-05-01T19:43:05.976Z,99844.59
2023-05-01T19:45:35.707Z,99839.22
2023-05-01T19:48:06.298Z,99831.41
2023-05-01T19:50:35.904Z,99832.44
2023-05-01T19:53:08.073Z,99833.56
2023-05-01T19:55:37.653Z,99831.88
2023-05-01T19:58:07.180Z,99837.06
2023-05-01T20:00:36.744Z,99838.75
2023-05-01T20:03:06.707Z,99840.22
2023-05-01T20:05:37.426Z,99834.00
2023-05-01T20:08:09.620Z,99839.50
2023-05-01T20:10:39.179Z,99840.03
2023-05-01T20:13:10.949Z,99831.41
2023-05-01T20:15:41.276Z,99832.97
2023-05-01T20:18:13.345Z,99831.06
2023-05-01T20:20:42.946Z,99834.53
2023-05-01T20:23:16.929Z,99821.28
2023-05-01T20:25:46.652Z,99822.28
2023-05-01T20:28:16.670Z,99821.34
2023-05-01T20:30:48.910Z,99823.78
2023-05-01T20:33:18.586Z,99828.06
2023-05-01T20:35:48.235Z,99821.81
2023-05-01T20:38:21.789Z,99828.09
2023-05-01T20:40:51.326Z,99831.00
2023-05-01T20:43:21.221Z,99829.22
2023-05-01T20:45:50.798Z,99838.25
2023-05-01T20:48:20.389Z,99836.00
2023-05-01T20:50:50.021Z,99831.63
2023-05-01T20:53:22.264Z,99832.75
2023-05-01T20:55:52.363Z,99824.94
2023-05-01T20:58:21.942Z,99832.13
2023-05-01T21:00:51.501Z,99830.56
2023-05-01T21:03:21.161Z,99833.25
2023-05-01T21:05:50.948Z,99823.47
2023-05-01T21:08:23.072Z,99837.50
2023-05-01T21:10:52.617Z,99837.94
2023-05-01T21:13:23.812Z,99832.94
2023-05-01T21:15:53.886Z,99826.91
2023-05-01T21:18:24.154Z,99829.66
2023-05-01T21:20:53.751Z,99835.78
2023-05-01T21:23:28.840Z,99826.97
2023-05-01T21:25:58.452Z,99834.03
2023-05-01T21:28:28.170Z,99830.56
2023-05-01T21:30:57.816Z,99832.38
2023-05-01T21:33:28.580Z,99829.75
2023-05-01T21:35:58.154Z,99830.78
2023-05-01T21:38:31.365Z,99828.16
2023-05-01T21:41:00.906Z,99829.22
2023-05-01T21:43:30.654Z,99829.41
2023-05-01T21:46:00.429Z,99824.47
2023-05-01T21:48:33.385Z,99835.38
2023-05-01T21:51:03.510Z,99831.94
2023-05-01T21:53:35.921Z,99832.13
2023-05-01T21:56:06.013Z,99833.19
2023-05-01T21:58:35.555Z,99832.50
2023-05-01T22:01:05.106Z,99832.66
2023-05-01T22:03:34.831Z,99836.31
2023-05-01T22:06:05.088Z,99840.06
2023-05-01T22:08:37.366Z,99838.47
2023-05-01T22:11:08.444Z,99842.16
2023-05-01T22:16:08.666Z,99838.94
2023-05-01T22:18:38.213Z,99835.50
2023-05-01T22:21:08.135Z,99835.56
2023-05-01T22:23:40.217Z,99830.38
2023-05-01T22:26:09.724Z,99833.13
2023-05-01T22:28:39.269Z,99836.75
2023-05-01T22:31:08.793Z,99831.44
2023-05-01T22:33:38.304Z,99821.75
2023-05-01T22:36:08.475Z,99824.44
2023-05-01T22:38:40.814Z,99818.38
2023-05-01T22:41:10.339Z,99812.16
2023-05-01T22:43:39.892Z,99814.81
2023-05-01T22:46:09.456Z,99817.56
2023-05-01T22:48:39.018Z,99820.25
2023-05-01T22:51:08.736Z,99815.00
2023-05-01T22:53:41.499Z,99816.81
2023-05-01T22:56:11.078Z,99814.03
2023-05-01T22:58:40.647Z,99815.84
2023-05-01T23:01:10.192Z,99813.97
2023-05-01T23:03:39.824Z,99821.13
2023-05-01T23:06:09.547Z,99819.34
2023-05-01T23:08:41.689Z,99813.25
2023-05-01T23:11:13.464Z,99815.91
2023-05-01T23:13:46.464Z,99814.28
2023-05-01T23:16:18.171Z,99810.69
2023-05-01T23:18:47.783Z,99807.22
2023-05-01T23:21:20.363Z,99810.69
2023-05-01T23:23:52.550Z,99811.56
2023-05-01T23:26:28.908Z,99809.84
2023-05-01T23:29:00.183Z,99809.94
2023-05-01T23:31:30.342Z,99807.31
2023-05-01T23:33:59.980Z,99803.75
2023-05-01T23:36:29.529Z,99803.84
2023-05-01T23:39:01.741Z,99802.06
2023-05-01T23:41:31.456Z,99798.59
2023-05-01T23:44:01.010Z,99792.47
2023-05-01T23:46:30.676Z,99789.81
2023-05-01T23:49:00.267Z,99795.19
2023-05-01T23:51:31.611Z,99795.25
2023-05-01T23:54:04.472Z,99800.63
2023-05-01T23:56:34.037Z,99794.50
2023-05-01T23:59:03.632Z,99787.50
